sensor_id;sensor_type;location;lat;lon;timestamp;P1;durP1;ratioP1;P2;durP2;ratioP2
1320;SDS011;653;51.480;11.992;2023-02-12T00:00:30;69.93;;;33.70;;
1320;SDS011;653;51.480;11.992;2023-02-12T00:02:55;57.97;;;32.37;;
1320;SDS011;653;51.480;11.992;2023-02-12T00:05:20;54.20;;;31.30;;
1320;SDS011;653;51.480;11.992;2023-02-12T00:07:46;56.00;;;32.37;;
1320;SDS011;653;51.480;11.992;2023-02-12T00:10:11;61.93;;;32.37;;
1320;SDS011;653;51.480;11.992;2023-02-12T00:12:37;58.17;;;31.00;;
1320;SDS011;653;51.480;11.992;2023-02-12T00:15:03;63.37;;;32.77;;
1320;SDS011;653;51.480;11.992;2023-02-12T00:17:28;63.87;;;31.73;;
1320;SDS011;653;51.480;11.992;2023-02-12T00:19:54;57.70;;;30.60;;
1320;SDS011;653;51.480;11.992;2023-02-12T00:22:19;61.67;;;31.87;;
1320;SDS011;653;51.480;11.992;2023-02-12T00:24:44;62.40;;;31.80;;
1320;SDS011;653;51.480;11.992;2023-02-12T00:27:10;59.83;;;30.87;;
1320;SDS011;653;51.480;11.992;2023-02-12T00:29:36;58.73;;;32.30;;
1320;SDS011;653;51.480;11.992;2023-02-12T00:32:02;52.40;;;28.67;;
1320;SDS011;653;51.480;11.992;2023-02-12T00:34:27;64.37;;;31.90;;
1320;SDS011;653;51.480;11.992;2023-02-12T00:36:53;67.37;;;32.53;;
1320;SDS011;653;51.480;11.992;2023-02-12T00:39:18;63.40;;;30.13;;
1320;SDS011;653;51.480;11.992;2023-02-12T00:41:43;51.67;;;29.50;;
1320;SDS011;653;51.480;11.992;2023-02-12T00:44:09;62.93;;;33.80;;
1320;SDS011;653;51.480;11.992;2023-02-12T00:46:34;60.30;;;29.30;;
1320;SDS011;653;51.480;11.992;2023-02-12T00:49:00;61.70;;;33.23;;
1320;SDS011;653;51.480;11.992;2023-02-12T00:51:25;62.73;;;30.50;;
1320;SDS011;653;51.480;11.992;2023-02-12T00:53:51;60.97;;;30.37;;
1320;SDS011;653;51.480;11.992;2023-02-12T00:56:16;60.80;;;32.13;;
1320;SDS011;653;51.480;11.992;2023-02-12T00:58:42;59.43;;;32.77;;
1320;SDS011;653;51.480;11.992;2023-02-12T01:01:07;61.47;;;31.67;;
1320;SDS011;653;51.480;11.992;2023-02-12T01:03:32;60.97;;;30.87;;
1320;SDS011;653;51.480;11.992;2023-02-12T01:05:58;54.37;;;30.10;;
1320;SDS011;653;51.480;11.992;2023-02-12T01:08:23;55.17;;;31.10;;
1320;SDS011;653;51.480;11.992;2023-02-12T01:10:53;59.40;;;30.40;;
1320;SDS011;653;51.480;11.992;2023-02-12T01:13:20;54.93;;;29.23;;
1320;SDS011;653;51.480;11.992;2023-02-12T01:15:46;54.50;;;31.20;;
1320;SDS011;653;51.480;11.992;2023-02-12T01:18:11;58.53;;;29.37;;
1320;SDS011;653;51.480;11.992;2023-02-12T01:20:38;54.47;;;30.60;;
1320;SDS011;653;51.480;11.992;2023-02-12T01:23:03;56.60;;;31.10;;
1320;SDS011;653;51.480;11.992;2023-02-12T01:25:30;53.53;;;28.40;;
1320;SDS011;653;51.480;11.992;2023-02-12T01:27:56;54.37;;;28.33;;
1320;SDS011;653;51.480;11.992;2023-02-12T01:30:21;49.80;;;27.60;;
1320;SDS011;653;51.480;11.992;2023-02-12T01:32:48;56.20;;;29.73;;
1320;SDS011;653;51.480;11.992;2023-02-12T01:35:13;51.80;;;27.70;;
1320;SDS011;653;51.480;11.992;2023-02-12T01:37:39;53.60;;;27.27;;
1320;SDS011;653;51.480;11.992;2023-02-12T01:40:06;50.50;;;28.70;;
1320;SDS011;653;51.480;11.992;2023-02-12T01:42:32;50.83;;;29.37;;
1320;SDS011;653;51.480;11.992;2023-02-12T01:47:40;50.07;;;27.03;;
1320;SDS011;653;51.480;11.992;2023-02-12T01:50:07;51.07;;;28.70;;
1320;SDS011;653;51.480;11.992;2023-02-12T01:52:35;56.30;;;29.67;;
1320;SDS011;653;51.480;11.992;2023-02-12T01:55:03;57.73;;;30.17;;
1320;SDS011;653;51.480;11.992;2023-02-12T01:57:31;52.63;;;29.50;;
1320;SDS011;653;51.480;11.992;2023-02-12T01:59:57;48.07;;;28.37;;
1320;SDS011;653;51.480;11.992;2023-02-12T02:02:24;46.93;;;26.93;;
1320;SDS011;653;51.480;11.992;2023-02-12T02:04:51;50.00;;;28.40;;
1320;SDS011;653;51.480;11.992;2023-02-12T02:07:18;49.70;;;26.47;;
1320;SDS011;653;51.480;11.992;2023-02-12T02:09:43;55.70;;;27.07;;
1320;SDS011;653;51.480;11.992;2023-02-12T02:12:10;47.17;;;27.20;;
1320;SDS011;653;51.480;11.992;2023-02-12T02:14:55;52.63;;;27.20;;
1320;SDS011;653;51.480;11.992;2023-02-12T02:25:35;47.10;;;26.10;;
1320;SDS011;653;51.480;11.992;2023-02-12T02:38:51;47.20;;;24.67;;
1320;SDS011;653;51.480;11.992;2023-02-12T02:41:38;42.00;;;23.00;;
1320;SDS011;653;51.480;11.992;2023-02-12T02:44:16;39.83;;;22.87;;
1320;SDS011;653;51.480;11.992;2023-02-12T02:46:47;44.57;;;25.40;;
1320;SDS011;653;51.480;11.992;2023-02-12T02:49:15;36.57;;;22.97;;
1320;SDS011;653;51.480;11.992;2023-02-12T02:51:46;38.13;;;23.30;;
1320;SDS011;653;51.480;11.992;2023-02-12T02:54:15;39.83;;;24.07;;
1320;SDS011;653;51.480;11.992;2023-02-12T02:56:47;43.23;;;24.53;;
1320;SDS011;653;51.480;11.992;2023-02-12T02:59:17;38.83;;;23.00;;
1320;SDS011;653;51.480;11.992;2023-02-12T03:01:53;39.43;;;23.90;;
1320;SDS011;653;51.480;11.992;2023-02-12T03:04:30;41.77;;;23.73;;
1320;SDS011;653;51.480;11.992;2023-02-12T03:07:01;40.50;;;21.87;;
1320;SDS011;653;51.480;11.992;2023-02-12T03:09:31;43.00;;;22.80;;
1320;SDS011;653;51.480;11.992;2023-02-12T03:12:04;39.13;;;23.53;;
1320;SDS011;653;51.480;11.992;2023-02-12T03:14:32;40.30;;;24.27;;
1320;SDS011;653;51.480;11.992;2023-02-12T03:17:17;40.20;;;22.73;;
1320;SDS011;653;51.480;11.992;2023-02-12T03:19:50;39.03;;;23.17;;
1320;SDS011;653;51.480;11.992;2023-02-12T03:22:42;37.00;;;22.50;;
1320;SDS011;653;51.480;11.992;2023-02-12T03:25:13;38.50;;;22.70;;
1320;SDS011;653;51.480;11.992;2023-02-12T03:27:41;38.63;;;22.90;;
1320;SDS011;653;51.480;11.992;2023-02-12T03:30:10;32.90;;;21.50;;
1320;SDS011;653;51.480;11.992;2023-02-12T03:35:14;33.43;;;21.67;;
1320;SDS011;653;51.480;11.992;2023-02-12T03:40:30;34.40;;;20.33;;
1320;SDS011;653;51.480;11.992;2023-02-12T03:43:01;33.80;;;20.67;;
1320;SDS011;653;51.480;11.992;2023-02-12T03:51:37;31.70;;;20.80;;
1320;SDS011;653;51.480;11.992;2023-02-12T03:54:05;33.07;;;21.43;;
1320;SDS011;653;51.480;11.992;2023-02-12T03:56:48;32.43;;;19.63;;
1320;SDS011;653;51.480;11.992;2023-02-12T03:59:23;34.53;;;21.43;;
1320;SDS011;653;51.480;11.992;2023-02-12T04:01:51;36.97;;;22.13;;
1320;SDS011;653;51.480;11.992;2023-02-12T04:04:18;39.53;;;22.80;;
1320;SDS011;653;51.480;11.992;2023-02-12T04:06:44;32.13;;;20.07;;
1320;SDS011;653;51.480;11.992;2023-02-12T04:09:11;32.27;;;20.07;;
1320;SDS011;653;51.480;11.992;2023-02-12T04:20:04;32.00;;;20.57;;
1320;SDS011;653;51.480;11.992;2023-02-12T04:25:31;40.60;;;21.47;;
1320;SDS011;653;51.480;11.992;2023-02-12T04:28:16;39.37;;;23.37;;
1320;SDS011;653;51.480;11.992;2023-02-12T04:31:03;35.00;;;22.13;;
1320;SDS011;653;51.480;11.992;2023-02-12T04:33:33;36.37;;;23.00;;
1320;SDS011;653;51.480;11.992;2023-02-12T04:36:36;36.00;;;22.60;;
1320;SDS011;653;51.480;11.992;2023-02-12T04:38:59;35.77;;;21.10;;
1320;SDS011;653;51.480;11.992;2023-02-12T04:41:27;38.70;;;22.47;;
1320;SDS011;653;51.480;11.992;2023-02-12T04:43:54;37.53;;;22.73;;
1320;SDS011;653;51.480;11.992;2023-02-12T04:46:20;40.23;;;22.60;;
1320;SDS011;653;51.480;11.992;2023-02-12T04:48:55;35.50;;;21.83;;
1320;SDS011;653;51.480;11.992;2023-02-12T04:51:22;40.57;;;22.27;;
1320;SDS011;653;51.480;11.992;2023-02-12T04:53:47;42.40;;;23.37;;
1320;SDS011;653;51.480;11.992;2023-02-12T04:56:13;35.60;;;19.57;;
1320;SDS011;653;51.480;11.992;2023-02-12T04:58:40;41.97;;;22.70;;
1320;SDS011;653;51.480;11.992;2023-02-12T05:01:06;35.30;;;22.67;;
1320;SDS011;653;51.480;11.992;2023-02-12T05:03:31;33.67;;;22.50;;
1320;SDS011;653;51.480;11.992;2023-02-12T05:06:01;32.80;;;20.83;;
1320;SDS011;653;51.480;11.992;2023-02-12T05:08:27;37.07;;;22.57;;
1320;SDS011;653;51.480;11.992;2023-02-12T05:10:52;43.33;;;23.20;;
1320;SDS011;653;51.480;11.992;2023-02-12T05:13:18;40.00;;;23.07;;
1320;SDS011;653;51.480;11.992;2023-02-12T05:15:43;40.13;;;23.73;;
1320;SDS011;653;51.480;11.992;2023-02-12T05:18:09;40.73;;;23.87;;
1320;SDS011;653;51.480;11.992;2023-02-12T05:20:34;37.00;;;22.10;;
1320;SDS011;653;51.480;11.992;2023-02-12T05:23:00;45.53;;;23.83;;
1320;SDS011;653;51.480;11.992;2023-02-12T05:25:25;34.17;;;21.27;;
1320;SDS011;653;51.480;11.992;2023-02-12T05:27:50;40.73;;;23.73;;
1320;SDS011;653;51.480;11.992;2023-02-12T05:30:16;44.23;;;23.70;;
1320;SDS011;653;51.480;11.992;2023-02-12T05:32:41;49.83;;;23.57;;
1320;SDS011;653;51.480;11.992;2023-02-12T05:35:07;44.40;;;24.63;;
1320;SDS011;653;51.480;11.992;2023-02-12T05:37:35;39.17;;;23.50;;
1320;SDS011;653;51.480;11.992;2023-02-12T05:40:04;45.37;;;24.60;;
1320;SDS011;653;51.480;11.992;2023-02-12T05:42:30;40.37;;;22.50;;
1320;SDS011;653;51.480;11.992;2023-02-12T05:44:55;39.97;;;23.63;;
1320;SDS011;653;51.480;11.992;2023-02-12T05:47:21;46.73;;;23.80;;
1320;SDS011;653;51.480;11.992;2023-02-12T05:49:46;43.47;;;23.70;;
1320;SDS011;653;51.480;11.992;2023-02-12T05:52:11;41.57;;;23.20;;
1320;SDS011;653;51.480;11.992;2023-02-12T05:54:37;43.90;;;24.27;;
1320;SDS011;653;51.480;11.992;2023-02-12T05:57:02;42.53;;;24.20;;
1320;SDS011;653;51.480;11.992;2023-02-12T05:59:27;44.17;;;22.60;;
1320;SDS011;653;51.480;11.992;2023-02-12T06:01:53;43.67;;;22.77;;
1320;SDS011;653;51.480;11.992;2023-02-12T06:04:22;42.53;;;23.80;;
1320;SDS011;653;51.480;11.992;2023-02-12T06:06:50;40.60;;;22.27;;
1320;SDS011;653;51.480;11.992;2023-02-12T06:09:19;42.23;;;22.43;;
1320;SDS011;653;51.480;11.992;2023-02-12T06:11:45;58.47;;;25.97;;
1320;SDS011;653;51.480;11.992;2023-02-12T06:14:12;49.07;;;24.80;;
1320;SDS011;653;51.480;11.992;2023-02-12T06:16:39;47.00;;;24.60;;
1320;SDS011;653;51.480;11.992;2023-02-12T06:19:05;44.53;;;26.97;;
1320;SDS011;653;51.480;11.992;2023-02-12T06:21:31;42.17;;;24.87;;
1320;SDS011;653;51.480;11.992;2023-02-12T06:23:57;41.27;;;22.73;;
1320;SDS011;653;51.480;11.992;2023-02-12T06:26:23;42.77;;;22.50;;
1320;SDS011;653;51.480;11.992;2023-02-12T06:28:49;46.40;;;23.10;;
1320;SDS011;653;51.480;11.992;2023-02-12T06:31:25;38.80;;;21.60;;
1320;SDS011;653;51.480;11.992;2023-02-12T06:33:53;42.13;;;22.67;;
1320;SDS011;653;51.480;11.992;2023-02-12T06:36:19;39.10;;;21.47;;
1320;SDS011;653;51.480;11.992;2023-02-12T06:38:45;44.53;;;24.60;;
1320;SDS011;653;51.480;11.992;2023-02-12T06:41:11;43.33;;;23.57;;
1320;SDS011;653;51.480;11.992;2023-02-12T06:43:36;43.50;;;22.70;;
1320;SDS011;653;51.480;11.992;2023-02-12T06:46:02;43.27;;;22.40;;
1320;SDS011;653;51.480;11.992;2023-02-12T06:48:28;39.10;;;22.80;;
1320;SDS011;653;51.480;11.992;2023-02-12T06:50:54;41.33;;;24.13;;
1320;SDS011;653;51.480;11.992;2023-02-12T06:53:19;52.27;;;24.43;;
1320;SDS011;653;51.480;11.992;2023-02-12T06:55:45;43.47;;;22.97;;
1320;SDS011;653;51.480;11.992;2023-02-12T06:58:10;38.47;;;22.97;;
1320;SDS011;653;51.480;11.992;2023-02-12T07:00:35;38.23;;;21.67;;
1320;SDS011;653;51.480;11.992;2023-02-12T07:03:01;42.90;;;22.47;;
1320;SDS011;653;51.480;11.992;2023-02-12T07:05:26;38.83;;;21.33;;
1320;SDS011;653;51.480;11.992;2023-02-12T07:07:52;37.57;;;21.13;;
1320;SDS011;653;51.480;11.992;2023-02-12T07:10:17;39.97;;;22.33;;
1320;SDS011;653;51.480;11.992;2023-02-12T07:12:43;42.93;;;22.03;;
1320;SDS011;653;51.480;11.992;2023-02-12T07:15:09;41.63;;;21.63;;
1320;SDS011;653;51.480;11.992;2023-02-12T07:17:35;35.87;;;21.83;;
1320;SDS011;653;51.480;11.992;2023-02-12T07:20:01;44.97;;;22.17;;
1320;SDS011;653;51.480;11.992;2023-02-12T07:22:26;41.70;;;23.37;;
1320;SDS011;653;51.480;11.992;2023-02-12T07:24:52;41.83;;;22.27;;
1320;SDS011;653;51.480;11.992;2023-02-12T07:27:17;36.17;;;22.20;;
1320;SDS011;653;51.480;11.992;2023-02-12T07:29:43;35.23;;;22.03;;
1320;SDS011;653;51.480;11.992;2023-02-12T07:32:08;40.37;;;22.03;;
1320;SDS011;653;51.480;11.992;2023-02-12T07:34:34;36.87;;;22.83;;
1320;SDS011;653;51.480;11.992;2023-02-12T07:36:59;37.57;;;24.10;;
1320;SDS011;653;51.480;11.992;2023-02-12T07:39:24;39.00;;;21.87;;
1320;SDS011;653;51.480;11.992;2023-02-12T07:41:50;42.23;;;22.60;;
1320;SDS011;653;51.480;11.992;2023-02-12T07:44:15;38.40;;;20.33;;
1320;SDS011;653;51.480;11.992;2023-02-12T07:46:42;34.47;;;20.80;;
1320;SDS011;653;51.480;11.992;2023-02-12T07:49:13;41.80;;;22.60;;
1320;SDS011;653;51.480;11.992;2023-02-12T07:51:40;37.00;;;21.83;;
1320;SDS011;653;51.480;11.992;2023-02-12T07:54:06;40.20;;;23.53;;
1320;SDS011;653;51.480;11.992;2023-02-12T07:56:32;41.13;;;23.40;;
1320;SDS011;653;51.480;11.992;2023-02-12T07:59:04;42.50;;;23.70;;
1320;SDS011;653;51.480;11.992;2023-02-12T08:01:35;35.53;;;22.83;;
1320;SDS011;653;51.480;11.992;2023-02-12T08:04:05;39.73;;;21.60;;
1320;SDS011;653;51.480;11.992;2023-02-12T08:06:33;36.30;;;20.50;;
1320;SDS011;653;51.480;11.992;2023-02-12T08:09:00;37.03;;;21.27;;
1320;SDS011;653;51.480;11.992;2023-02-12T08:11:28;37.97;;;20.87;;
1320;SDS011;653;51.480;11.992;2023-02-12T08:13:55;37.13;;;20.20;;
1320;SDS011;653;51.480;11.992;2023-02-12T08:16:22;34.70;;;21.73;;
1320;SDS011;653;51.480;11.992;2023-02-12T08:18:49;40.00;;;21.93;;
1320;SDS011;653;51.480;11.992;2023-02-12T08:21:16;38.63;;;20.30;;
1320;SDS011;653;51.480;11.992;2023-02-12T08:23:44;36.30;;;20.47;;
1320;SDS011;653;51.480;11.992;2023-02-12T08:26:11;31.10;;;20.50;;
1320;SDS011;653;51.480;11.992;2023-02-12T08:28:38;33.50;;;19.57;;
1320;SDS011;653;51.480;11.992;2023-02-12T08:31:09;37.80;;;19.60;;
1320;SDS011;653;51.480;11.992;2023-02-12T08:33:36;40.87;;;20.93;;
1320;SDS011;653;51.480;11.992;2023-02-12T08:36:03;37.57;;;21.27;;
1320;SDS011;653;51.480;11.992;2023-02-12T08:38:39;36.57;;;20.43;;
1320;SDS011;653;51.480;11.992;2023-02-12T08:41:07;40.67;;;22.63;;
1320;SDS011;653;51.480;11.992;2023-02-12T08:43:40;37.07;;;22.27;;
1320;SDS011;653;51.480;11.992;2023-02-12T08:46:07;38.83;;;22.47;;
1320;SDS011;653;51.480;11.992;2023-02-12T08:48:34;38.93;;;22.53;;
1320;SDS011;653;51.480;11.992;2023-02-12T08:51:03;40.67;;;23.07;;
1320;SDS011;653;51.480;11.992;2023-02-12T08:53:29;44.63;;;23.70;;
1320;SDS011;653;51.480;11.992;2023-02-12T08:55:55;43.50;;;24.37;;
1320;SDS011;653;51.480;11.992;2023-02-12T08:58:20;36.37;;;22.67;;
1320;SDS011;653;51.480;11.992;2023-02-12T09:00:45;33.47;;;22.80;;
1320;SDS011;653;51.480;11.992;2023-02-12T09:03:11;38.07;;;20.50;;
1320;SDS011;653;51.480;11.992;2023-02-12T09:05:40;44.00;;;22.57;;
1320;SDS011;653;51.480;11.992;2023-02-12T09:08:06;40.10;;;21.53;;
1320;SDS011;653;51.480;11.992;2023-02-12T09:10:32;38.17;;;19.37;;
1320;SDS011;653;51.480;11.992;2023-02-12T09:12:57;39.10;;;20.60;;
1320;SDS011;653;51.480;11.992;2023-02-12T09:15:23;36.73;;;20.93;;
1320;SDS011;653;51.480;11.992;2023-02-12T09:17:48;35.30;;;19.80;;
1320;SDS011;653;51.480;11.992;2023-02-12T09:20:14;31.63;;;18.63;;
1320;SDS011;653;51.480;11.992;2023-02-12T09:22:40;32.83;;;20.97;;
1320;SDS011;653;51.480;11.992;2023-02-12T09:25:05;39.13;;;24.00;;
1320;SDS011;653;51.480;11.992;2023-02-12T09:27:31;33.07;;;20.00;;
1320;SDS011;653;51.480;11.992;2023-02-12T09:29:57;32.07;;;19.73;;
1320;SDS011;653;51.480;11.992;2023-02-12T09:32:22;34.50;;;19.70;;
1320;SDS011;653;51.480;11.992;2023-02-12T09:34:48;32.03;;;20.03;;
1320;SDS011;653;51.480;11.992;2023-02-12T09:37:13;29.60;;;18.40;;
1320;SDS011;653;51.480;11.992;2023-02-12T09:39:39;30.13;;;19.83;;
1320;SDS011;653;51.480;11.992;2023-02-12T09:44:42;28.73;;;17.37;;
1320;SDS011;653;51.480;11.992;2023-02-12T09:47:31;29.50;;;17.40;;
1320;SDS011;653;51.480;11.992;2023-02-12T09:52:57;29.47;;;17.77;;
1320;SDS011;653;51.480;11.992;2023-02-12T09:55:24;27.87;;;17.77;;
1320;SDS011;653;51.480;11.992;2023-02-12T09:57:52;29.17;;;17.70;;
1320;SDS011;653;51.480;11.992;2023-02-12T10:00:21;30.73;;;17.67;;
1320;SDS011;653;51.480;11.992;2023-02-12T10:02:50;30.30;;;17.30;;
1320;SDS011;653;51.480;11.992;2023-02-12T10:05:28;26.53;;;16.80;;
1320;SDS011;653;51.480;11.992;2023-02-12T10:14:31;31.87;;;17.60;;
1320;SDS011;653;51.480;11.992;2023-02-12T10:17:26;29.03;;;16.13;;
1320;SDS011;653;51.480;11.992;2023-02-12T10:23:20;30.37;;;17.13;;
1320;SDS011;653;51.480;11.992;2023-02-12T10:25:53;26.87;;;16.63;;
1320;SDS011;653;51.480;11.992;2023-02-12T10:28:24;27.97;;;16.97;;
1320;SDS011;653;51.480;11.992;2023-02-12T10:33:34;29.30;;;18.50;;
1320;SDS011;653;51.480;11.992;2023-02-12T10:36:14;28.00;;;17.33;;
1320;SDS011;653;51.480;11.992;2023-02-12T10:38:58;27.83;;;16.83;;
1320;SDS011;653;51.480;11.992;2023-02-12T10:41:27;30.37;;;17.30;;
1320;SDS011;653;51.480;11.992;2023-02-12T10:43:54;29.40;;;17.70;;
1320;SDS011;653;51.480;11.992;2023-02-12T10:46:20;33.43;;;18.33;;
1320;SDS011;653;51.480;11.992;2023-02-12T10:48:47;29.27;;;18.43;;
1320;SDS011;653;51.480;11.992;2023-02-12T10:56:55;23.60;;;15.47;;
1320;SDS011;653;51.480;11.992;2023-02-12T10:59:21;27.90;;;17.80;;
1320;SDS011;653;51.480;11.992;2023-02-12T11:01:47;25.87;;;16.40;;
1320;SDS011;653;51.480;11.992;2023-02-12T11:04:20;27.80;;;16.37;;
1320;SDS011;653;51.480;11.992;2023-02-12T11:06:58;27.33;;;17.47;;
1320;SDS011;653;51.480;11.992;2023-02-12T11:09:41;30.97;;;18.87;;
1320;SDS011;653;51.480;11.992;2023-02-12T11:14:54;26.87;;;15.77;;
1320;SDS011;653;51.480;11.992;2023-02-12T11:17:26;23.37;;;16.30;;
1320;SDS011;653;51.480;11.992;2023-02-12T11:22:58;28.13;;;16.90;;
1320;SDS011;653;51.480;11.992;2023-02-12T11:25:27;28.77;;;16.70;;
1320;SDS011;653;51.480;11.992;2023-02-12T11:28:01;27.67;;;16.00;;
1320;SDS011;653;51.480;11.992;2023-02-12T11:30:35;25.10;;;15.87;;
1320;SDS011;653;51.480;11.992;2023-02-12T11:33:14;25.80;;;16.73;;
1320;SDS011;653;51.480;11.992;2023-02-12T11:35:50;23.37;;;14.77;;
1320;SDS011;653;51.480;11.992;2023-02-12T11:38:20;28.87;;;17.27;;
1320;SDS011;653;51.480;11.992;2023-02-12T11:40:48;25.03;;;16.07;;
1320;SDS011;653;51.480;11.992;2023-02-12T11:43:15;26.83;;;16.43;;
1320;SDS011;653;51.480;11.992;2023-02-12T11:48:16;27.23;;;15.43;;
1320;SDS011;653;51.480;11.992;2023-02-12T11:50:51;23.83;;;15.40;;
1320;SDS011;653;51.480;11.992;2023-02-12T11:53:19;22.93;;;14.70;;
1320;SDS011;653;51.480;11.992;2023-02-12T11:56:12;22.70;;;14.40;;
1320;SDS011;653;51.480;11.992;2023-02-12T11:58:37;25.83;;;14.57;;
1320;SDS011;653;51.480;11.992;2023-02-12T12:04:08;20.30;;;13.57;;
1320;SDS011;653;51.480;11.992;2023-02-12T12:06:45;22.97;;;14.27;;
1320;SDS011;653;51.480;11.992;2023-02-12T12:09:15;22.60;;;15.10;;
1320;SDS011;653;51.480;11.992;2023-02-12T12:11:48;24.63;;;14.47;;
1320;SDS011;653;51.480;11.992;2023-02-12T12:17:43;23.07;;;14.40;;
1320;SDS011;653;51.480;11.992;2023-02-12T12:20:31;20.70;;;13.33;;
1320;SDS011;653;51.480;11.992;2023-02-12T12:28:04;23.60;;;13.87;;
1320;SDS011;653;51.480;11.992;2023-02-12T12:33:16;22.33;;;13.60;;
1320;SDS011;653;51.480;11.992;2023-02-12T12:35:54;24.57;;;12.80;;
1320;SDS011;653;51.480;11.992;2023-02-12T12:44:08;20.80;;;12.87;;
1320;SDS011;653;51.480;11.992;2023-02-12T12:52:20;23.20;;;14.30;;
1320;SDS011;653;51.480;11.992;2023-02-12T13:13:34;21.40;;;12.23;;
1320;SDS011;653;51.480;11.992;2023-02-12T13:16:14;20.00;;;13.43;;
1320;SDS011;653;51.480;11.992;2023-02-12T13:21:44;17.47;;;10.60;;
1320;SDS011;653;51.480;11.992;2023-02-12T13:26:53;16.80;;;10.60;;
1320;SDS011;653;51.480;11.992;2023-02-12T13:29:25;19.03;;;11.10;;
1320;SDS011;653;51.480;11.992;2023-02-12T13:31:58;18.53;;;11.90;;
1320;SDS011;653;51.480;11.992;2023-02-12T13:34:29;21.77;;;11.33;;
1320;SDS011;653;51.480;11.992;2023-02-12T13:36:58;18.10;;;10.80;;
1320;SDS011;653;51.480;11.992;2023-02-12T13:39:31;21.73;;;10.70;;
1320;SDS011;653;51.480;11.992;2023-02-12T13:47:11;19.33;;;11.40;;
1320;SDS011;653;51.480;11.992;2023-02-12T13:50:06;19.67;;;11.50;;
1320;SDS011;653;51.480;11.992;2023-02-12T13:53:00;18.77;;;11.93;;
1320;SDS011;653;51.480;11.992;2023-02-12T13:55:53;17.23;;;10.90;;
1320;SDS011;653;51.480;11.992;2023-02-12T14:00:57;17.47;;;10.20;;
1320;SDS011;653;51.480;11.992;2023-02-12T14:03:24;17.57;;;10.47;;
1320;SDS011;653;51.480;11.992;2023-02-12T14:08:38;21.20;;;13.27;;
1320;SDS011;653;51.480;11.992;2023-02-12T14:11:17;21.43;;;10.67;;
1320;SDS011;653;51.480;11.992;2023-02-12T14:13:55;15.53;;;10.30;;
1320;SDS011;653;51.480;11.992;2023-02-12T14:22:15;15.67;;;10.33;;
1320;SDS011;653;51.480;11.992;2023-02-12T14:25:04;17.37;;;10.73;;
1320;SDS011;653;51.480;11.992;2023-02-12T14:30:20;17.03;;;10.80;;
1320;SDS011;653;51.480;11.992;2023-02-12T14:35:33;18.20;;;10.30;;
1320;SDS011;653;51.480;11.992;2023-02-12T14:38:01;15.53;;;10.40;;
1320;SDS011;653;51.480;11.992;2023-02-12T14:40:37;19.53;;;10.03;;
1320;SDS011;653;51.480;11.992;2023-02-12T14:45:53;18.30;;;10.87;;
1320;SDS011;653;51.480;11.992;2023-02-12T14:48:40;15.17;;;8.93;;
1320;SDS011;653;51.480;11.992;2023-02-12T14:51:15;17.60;;;9.67;;
1320;SDS011;653;51.480;11.992;2023-02-12T14:53:45;17.20;;;10.40;;
1320;SDS011;653;51.480;11.992;2023-02-12T14:56:11;16.40;;;10.33;;
1320;SDS011;653;51.480;11.992;2023-02-12T14:58:37;17.50;;;9.23;;
1320;SDS011;653;51.480;11.992;2023-02-12T15:01:03;20.33;;;10.70;;
1320;SDS011;653;51.480;11.992;2023-02-12T15:03:44;16.60;;;10.37;;
1320;SDS011;653;51.480;11.992;2023-02-12T15:06:22;18.27;;;10.90;;
1320;SDS011;653;51.480;11.992;2023-02-12T15:09:10;22.00;;;11.80;;
1320;SDS011;653;51.480;11.992;2023-02-12T15:11:46;18.23;;;10.40;;
1320;SDS011;653;51.480;11.992;2023-02-12T15:14:16;15.47;;;10.30;;
1320;SDS011;653;51.480;11.992;2023-02-12T15:16:44;20.47;;;11.83;;
1320;SDS011;653;51.480;11.992;2023-02-12T15:19:22;18.33;;;12.10;;
1320;SDS011;653;51.480;11.992;2023-02-12T15:22:00;15.40;;;10.00;;
1320;SDS011;653;51.480;11.992;2023-02-12T15:24:26;16.53;;;9.93;;
1320;SDS011;653;51.480;11.992;2023-02-12T15:26:53;15.60;;;10.80;;
1320;SDS011;653;51.480;11.992;2023-02-12T15:31:50;18.67;;;10.73;;
1320;SDS011;653;51.480;11.992;2023-02-12T15:34:18;16.40;;;9.70;;
1320;SDS011;653;51.480;11.992;2023-02-12T15:36:46;16.50;;;10.63;;
1320;SDS011;653;51.480;11.992;2023-02-12T15:39:19;18.20;;;11.57;;
1320;SDS011;653;51.480;11.992;2023-02-12T15:41:48;19.87;;;12.27;;
1320;SDS011;653;51.480;11.992;2023-02-12T15:49:36;18.07;;;10.30;;
1320;SDS011;653;51.480;11.992;2023-02-12T15:52:26;19.33;;;11.00;;
1320;SDS011;653;51.480;11.992;2023-02-12T15:54:51;16.27;;;11.13;;
1320;SDS011;653;51.480;11.992;2023-02-12T15:57:22;16.27;;;10.30;;
1320;SDS011;653;51.480;11.992;2023-02-12T15:59:52;16.80;;;10.93;;
1320;SDS011;653;51.480;11.992;2023-02-12T16:02:21;18.20;;;11.77;;
1320;SDS011;653;51.480;11.992;2023-02-12T16:04:49;18.60;;;12.30;;
1320;SDS011;653;51.480;11.992;2023-02-12T16:07:15;22.50;;;12.93;;
1320;SDS011;653;51.480;11.992;2023-02-12T16:09:41;25.63;;;12.97;;
1320;SDS011;653;51.480;11.992;2023-02-12T16:12:10;23.53;;;13.17;;
1320;SDS011;653;51.480;11.992;2023-02-12T16:14:38;23.43;;;12.63;;
1320;SDS011;653;51.480;11.992;2023-02-12T16:20:03;19.40;;;9.87;;
1320;SDS011;653;51.480;11.992;2023-02-12T16:22:38;20.63;;;11.67;;
1320;SDS011;653;51.480;11.992;2023-02-12T16:25:38;20.93;;;14.63;;
1320;SDS011;653;51.480;11.992;2023-02-12T16:28:01;21.77;;;13.17;;
1320;SDS011;653;51.480;11.992;2023-02-12T16:30:30;24.77;;;15.10;;
1320;SDS011;653;51.480;11.992;2023-02-12T16:33:03;26.70;;;16.00;;
1320;SDS011;653;51.480;11.992;2023-02-12T16:35:33;24.33;;;13.77;;
1320;SDS011;653;51.480;11.992;2023-02-12T16:38:29;23.90;;;13.97;;
1320;SDS011;653;51.480;11.992;2023-02-12T16:43:47;22.47;;;12.77;;
1320;SDS011;653;51.480;11.992;2023-02-12T16:46:16;23.53;;;14.90;;
1320;SDS011;653;51.480;11.992;2023-02-12T16:48:43;21.77;;;14.73;;
1320;SDS011;653;51.480;11.992;2023-02-12T16:51:46;22.63;;;13.93;;
1320;SDS011;653;51.480;11.992;2023-02-12T16:54:04;24.33;;;15.57;;
1320;SDS011;653;51.480;11.992;2023-02-12T16:56:48;22.50;;;14.00;;
1320;SDS011;653;51.480;11.992;2023-02-12T16:59:13;24.33;;;14.07;;
1320;SDS011;653;51.480;11.992;2023-02-12T17:01:39;23.47;;;13.93;;
1320;SDS011;653;51.480;11.992;2023-02-12T17:04:05;20.33;;;12.80;;
1320;SDS011;653;51.480;11.992;2023-02-12T17:06:32;20.27;;;13.30;;
1320;SDS011;653;51.480;11.992;2023-02-12T17:08:57;19.17;;;14.10;;
1320;SDS011;653;51.480;11.992;2023-02-12T17:11:24;23.33;;;14.70;;
1320;SDS011;653;51.480;11.992;2023-02-12T17:13:51;25.30;;;15.30;;
1320;SDS011;653;51.480;11.992;2023-02-12T17:16:17;27.40;;;15.30;;
1320;SDS011;653;51.480;11.992;2023-02-12T17:18:43;29.43;;;16.90;;
1320;SDS011;653;51.480;11.992;2023-02-12T17:21:27;25.60;;;15.67;;
1320;SDS011;653;51.480;11.992;2023-02-12T17:23:54;36.90;;;20.13;;
1320;SDS011;653;51.480;11.992;2023-02-12T17:26:21;31.23;;;17.33;;
1320;SDS011;653;51.480;11.992;2023-02-12T17:28:47;25.83;;;16.63;;
1320;SDS011;653;51.480;11.992;2023-02-12T17:31:13;27.50;;;18.10;;
1320;SDS011;653;51.480;11.992;2023-02-12T17:33:38;33.67;;;19.03;;
1320;SDS011;653;51.480;11.992;2023-02-12T17:36:04;28.30;;;17.27;;
1320;SDS011;653;51.480;11.992;2023-02-12T17:38:30;29.63;;;17.70;;
1320;SDS011;653;51.480;11.992;2023-02-12T17:40:56;32.10;;;17.17;;
1320;SDS011;653;51.480;11.992;2023-02-12T17:43:21;32.60;;;19.20;;
1320;SDS011;653;51.480;11.992;2023-02-12T17:45:47;34.20;;;20.87;;